Moyer Aviation Incorporated

Pocono Mountains Airport

188 Airport Rd. Tobyhanna, PA 18466 

P: 570-839-7161
800-321-5890
F: 570-839-7162

Weather

Weather

Pocono Weather

KMPO 232153Z AUTO 13005KT 10SM CLR 16/07 A2986 RMK AO2 SLP110 T01560072

Allentown Weather

KABE 232151Z 17003KT 10SM CLR 19/09 A2984 RMK AO2 SLP104 T01940094

Wilkes-Barre Weather

KAVP 232154Z 07005KT 10SM CLR 21/07 A2983 RMK AO2 SLP097 T02060067


* required field

Contact Us